sensor_id;sensor_type;location;lat;lon;timestamp;temperature;humidity
54461;DHT22;69977;49.414;11.010;2024-02-04T00:01:44;8.00;99.90
54461;DHT22;69977;49.414;11.010;2024-02-04T00:04:10;8.00;99.90
54461;DHT22;69977;49.414;11.010;2024-02-04T00:06:36;8.00;99.90
54461;DHT22;69977;49.414;11.010;2024-02-04T00:09:01;8.00;99.90
54461;DHT22;69977;49.414;11.010;2024-02-04T00:11:29;8.00;99.90
54461;DHT22;69977;49.414;11.010;2024-02-04T00:13:55;8.00;99.90
54461;DHT22;69977;49.414;11.010;2024-02-04T00:16:21;8.00;99.90
54461;DHT22;69977;49.414;11.010;2024-02-04T00:18:46;8.00;99.90
54461;DHT22;69977;49.414;11.010;2024-02-04T00:21:12;8.00;99.90
54461;DHT22;69977;49.414;11.010;2024-02-04T00:23:38;8.10;99.90
54461;DHT22;69977;49.414;11.010;2024-02-04T00:26:04;8.00;99.90
54461;DHT22;69977;49.414;11.010;2024-02-04T00:28:30;8.00;99.90
54461;DHT22;69977;49.414;11.010;2024-02-04T00:30:55;8.00;99.90
54461;DHT22;69977;49.414;11.010;2024-02-04T00:33:23;8.00;99.90
54461;DHT22;69977;49.414;11.010;2024-02-04T00:35:49;8.10;99.90
54461;DHT22;69977;49.414;11.010;2024-02-04T00:38:15;8.10;99.90
54461;DHT22;69977;49.414;11.010;2024-02-04T00:40:40;8.10;99.90
54461;DHT22;69977;49.414;11.010;2024-02-04T00:43:06;8.10;99.90
54461;DHT22;69977;49.414;11.010;2024-02-04T00:45:32;8.10;99.90
54461;DHT22;69977;49.414;11.010;2024-02-04T00:47:58;8.10;99.90
54461;DHT22;69977;49.414;11.010;2024-02-04T00:50:24;8.00;99.90
54461;DHT22;69977;49.414;11.010;2024-02-04T00:52:50;8.00;99.90
54461;DHT22;69977;49.414;11.010;2024-02-04T00:55:15;8.00;99.90
54461;DHT22;69977;49.414;11.010;2024-02-04T00:57:41;8.00;99.90
54461;DHT22;69977;49.414;11.010;2024-02-04T01:00:07;8.00;99.90
54461;DHT22;69977;49.414;11.010;2024-02-04T01:02:33;8.00;99.90
54461;DHT22;69977;49.414;11.010;2024-02-04T01:05:00;7.90;99.90
54461;DHT22;69977;49.414;11.010;2024-02-04T01:07:25;7.90;99.90
54461;DHT22;69977;49.414;11.010;2024-02-04T01:09:51;7.80;99.90
54461;DHT22;69977;49.414;11.010;2024-02-04T01:12:17;7.90;99.90
54461;DHT22;69977;49.414;11.010;2024-02-04T01:14:43;7.90;99.90
54461;DHT22;69977;49.414;11.010;2024-02-04T01:17:09;7.90;99.90
54461;DHT22;69977;49.414;11.010;2024-02-04T01:19:34;7.90;99.90
54461;DHT22;69977;49.414;11.010;2024-02-04T01:22:00;7.90;99.90
54461;DHT22;69977;49.414;11.010;2024-02-04T01:24:26;7.90;99.90
54461;DHT22;69977;49.414;11.010;2024-02-04T01:26:52;7.90;99.90
54461;DHT22;69977;49.414;11.010;2024-02-04T01:29:18;7.80;99.90
54461;DHT22;69977;49.414;11.010;2024-02-04T01:31:43;7.80;99.90
54461;DHT22;69977;49.414;11.010;2024-02-04T01:34:09;7.80;99.90
54461;DHT22;69977;49.414;11.010;2024-02-04T01:36:35;7.80;99.90
54461;DHT22;69977;49.414;11.010;2024-02-04T01:39:02;7.80;99.90
54461;DHT22;69977;49.414;11.010;2024-02-04T01:41:27;7.80;99.90
54461;DHT22;69977;49.414;11.010;2024-02-04T01:43:54;7.70;99.90
54461;DHT22;69977;49.414;11.010;2024-02-04T01:46:20;7.70;99.90
54461;DHT22;69977;49.414;11.010;2024-02-04T01:48:46;7.70;99.90
54461;DHT22;69977;49.414;11.010;2024-02-04T01:51:14;7.80;99.90
54461;DHT22;69977;49.414;11.010;2024-02-04T01:53:41;7.80;99.90
54461;DHT22;69977;49.414;11.010;2024-02-04T01:56:07;7.80;99.90
54461;DHT22;69977;49.414;11.010;2024-02-04T01:58:34;7.80;99.90
54461;DHT22;69977;49.414;11.010;2024-02-04T02:01:00;7.80;99.90
54461;DHT22;69977;49.414;11.010;2024-02-04T02:03:26;7.80;99.90
54461;DHT22;69977;49.414;11.010;2024-02-04T02:05:52;7.80;99.90
54461;DHT22;69977;49.414;11.010;2024-02-04T02:08:18;7.80;99.90
54461;DHT22;69977;49.414;11.010;2024-02-04T02:10:46;7.80;99.90
54461;DHT22;69977;49.414;11.010;2024-02-04T02:13:27;7.80;99.90
54461;DHT22;69977;49.414;11.010;2024-02-04T02:16:19;7.80;99.90
54461;DHT22;69977;49.414;11.010;2024-02-04T02:18:52;7.80;99.90
54461;DHT22;69977;49.414;11.010;2024-02-04T02:22:14;7.80;99.90
54461;DHT22;69977;49.414;11.010;2024-02-04T02:24:34;7.80;99.90
54461;DHT22;69977;49.414;11.010;2024-02-04T02:27:01;7.90;99.90
54461;DHT22;69977;49.414;11.010;2024-02-04T02:29:27;7.90;99.90
54461;DHT22;69977;49.414;11.010;2024-02-04T02:31:53;7.80;99.90
54461;DHT22;69977;49.414;11.010;2024-02-04T02:34:19;7.80;99.90
54461;DHT22;69977;49.414;11.010;2024-02-04T02:36:52;7.90;99.90
54461;DHT22;69977;49.414;11.010;2024-02-04T02:39:27;7.90;99.90
54461;DHT22;69977;49.414;11.010;2024-02-04T02:41:57;7.90;99.90
54461;DHT22;69977;49.414;11.010;2024-02-04T02:44:28;7.90;99.90
54461;DHT22;69977;49.414;11.010;2024-02-04T02:46:58;7.90;99.90
54461;DHT22;69977;49.414;11.010;2024-02-04T02:49:25;7.90;99.90
54461;DHT22;69977;49.414;11.010;2024-02-04T02:51:51;7.90;99.90
54461;DHT22;69977;49.414;11.010;2024-02-04T02:54:16;7.90;99.90
54461;DHT22;69977;49.414;11.010;2024-02-04T02:56:42;7.90;99.90
54461;DHT22;69977;49.414;11.010;2024-02-04T02:59:08;7.90;99.90
54461;DHT22;69977;49.414;11.010;2024-02-04T03:01:34;7.90;99.90
54461;DHT22;69977;49.414;11.010;2024-02-04T03:03:59;7.90;99.90
54461;DHT22;69977;49.414;11.010;2024-02-04T03:06:25;7.90;99.90
54461;DHT22;69977;49.414;11.010;2024-02-04T03:08:51;7.90;99.90
54461;DHT22;69977;49.414;11.010;2024-02-04T03:11:17;7.90;99.90
54461;DHT22;69977;49.414;11.010;2024-02-04T03:13:43;7.90;99.90
54461;DHT22;69977;49.414;11.010;2024-02-04T03:16:12;7.90;99.90
54461;DHT22;69977;49.414;11.010;2024-02-04T03:18:40;7.90;99.90
54461;DHT22;69977;49.414;11.010;2024-02-04T03:21:16;7.90;99.90
54461;DHT22;69977;49.414;11.010;2024-02-04T03:23:43;7.90;99.90
54461;DHT22;69977;49.414;11.010;2024-02-04T03:26:16;7.90;99.90
54461;DHT22;69977;49.414;11.010;2024-02-04T03:28:45;7.90;99.90
54461;DHT22;69977;49.414;11.010;2024-02-04T03:31:11;7.80;99.90
54461;DHT22;69977;49.414;11.010;2024-02-04T03:33:36;7.90;99.90
54461;DHT22;69977;49.414;11.010;2024-02-04T03:36:02;7.90;99.90
54461;DHT22;69977;49.414;11.010;2024-02-04T03:38:28;7.90;99.90
54461;DHT22;69977;49.414;11.010;2024-02-04T03:40:54;7.90;99.90
54461;DHT22;69977;49.414;11.010;2024-02-04T03:43:20;7.90;99.90
54461;DHT22;69977;49.414;11.010;2024-02-04T03:45:46;7.90;99.90
54461;DHT22;69977;49.414;11.010;2024-02-04T03:48:12;7.90;99.90
54461;DHT22;69977;49.414;11.010;2024-02-04T03:50:38;7.90;99.90
54461;DHT22;69977;49.414;11.010;2024-02-04T03:53:04;7.90;99.90
54461;DHT22;69977;49.414;11.010;2024-02-04T03:55:29;7.90;99.90
54461;DHT22;69977;49.414;11.010;2024-02-04T03:57:55;7.90;99.90
54461;DHT22;69977;49.414;11.010;2024-02-04T04:00:24;7.80;99.90
54461;DHT22;69977;49.414;11.010;2024-02-04T04:02:50;7.90;99.90
54461;DHT22;69977;49.414;11.010;2024-02-04T04:05:16;7.90;99.90
54461;DHT22;69977;49.414;11.010;2024-02-04T04:07:41;7.80;99.90
54461;DHT22;69977;49.414;11.010;2024-02-04T04:10:07;7.80;99.90
54461;DHT22;69977;49.414;11.010;2024-02-04T04:12:33;7.80;99.90
54461;DHT22;69977;49.414;11.010;2024-02-04T04:14:59;7.80;99.90
54461;DHT22;69977;49.414;11.010;2024-02-04T04:17:25;7.70;99.90
54461;DHT22;69977;49.414;11.010;2024-02-04T04:19:51;7.70;99.90
54461;DHT22;69977;49.414;11.010;2024-02-04T04:22:17;7.60;99.90
54461;DHT22;69977;49.414;11.010;2024-02-04T04:24:42;7.60;99.90
54461;DHT22;69977;49.414;11.010;2024-02-04T04:27:09;7.60;99.90
54461;DHT22;69977;49.414;11.010;2024-02-04T04:29:35;7.60;99.90
54461;DHT22;69977;49.414;11.010;2024-02-04T04:32:00;7.50;99.90
54461;DHT22;69977;49.414;11.010;2024-02-04T04:34:26;7.50;99.90
54461;DHT22;69977;49.414;11.010;2024-02-04T04:36:52;7.50;99.90
54461;DHT22;69977;49.414;11.010;2024-02-04T04:39:18;7.50;99.90
54461;DHT22;69977;49.414;11.010;2024-02-04T04:41:44;7.50;99.90
54461;DHT22;69977;49.414;11.010;2024-02-04T04:44:10;7.50;99.90
54461;DHT22;69977;49.414;11.010;2024-02-04T04:46:39;7.50;99.90
54461;DHT22;69977;49.414;11.010;2024-02-04T04:49:05;7.60;99.90
54461;DHT22;69977;49.414;11.010;2024-02-04T04:51:31;7.50;99.90
54461;DHT22;69977;49.414;11.010;2024-02-04T04:53:57;7.50;99.90
54461;DHT22;69977;49.414;11.010;2024-02-04T04:56:23;7.50;99.90
54461;DHT22;69977;49.414;11.010;2024-02-04T04:58:49;7.50;99.90
54461;DHT22;69977;49.414;11.010;2024-02-04T05:01:16;7.50;99.90
54461;DHT22;69977;49.414;11.010;2024-02-04T05:03:42;7.50;99.90
54461;DHT22;69977;49.414;11.010;2024-02-04T05:06:08;7.50;99.90
54461;DHT22;69977;49.414;11.010;2024-02-04T05:08:34;7.50;99.90
54461;DHT22;69977;49.414;11.010;2024-02-04T05:11:00;7.50;99.90
54461;DHT22;69977;49.414;11.010;2024-02-04T05:13:25;7.40;99.90
54461;DHT22;69977;49.414;11.010;2024-02-04T05:15:51;7.40;99.90
54461;DHT22;69977;49.414;11.010;2024-02-04T05:18:17;7.40;99.90
54461;DHT22;69977;49.414;11.010;2024-02-04T05:20:43;7.40;99.90
54461;DHT22;69977;49.414;11.010;2024-02-04T05:23:09;7.40;99.90
54461;DHT22;69977;49.414;11.010;2024-02-04T05:25:35;7.40;99.90
54461;DHT22;69977;49.414;11.010;2024-02-04T05:28:01;7.40;99.90
54461;DHT22;69977;49.414;11.010;2024-02-04T05:30:26;7.40;99.90
54461;DHT22;69977;49.414;11.010;2024-02-04T05:32:52;7.40;99.90
54461;DHT22;69977;49.414;11.010;2024-02-04T05:35:18;7.40;99.90
54461;DHT22;69977;49.414;11.010;2024-02-04T05:37:44;7.40;99.90
54461;DHT22;69977;49.414;11.010;2024-02-04T05:40:10;7.40;99.90
54461;DHT22;69977;49.414;11.010;2024-02-04T05:42:36;7.40;99.90
54461;DHT22;69977;49.414;11.010;2024-02-04T05:45:03;7.40;99.90
54461;DHT22;69977;49.414;11.010;2024-02-04T05:47:31;7.40;99.90
54461;DHT22;69977;49.414;11.010;2024-02-04T05:49:56;7.40;99.90
54461;DHT22;69977;49.414;11.010;2024-02-04T05:52:22;7.40;99.90
54461;DHT22;69977;49.414;11.010;2024-02-04T05:54:48;7.40;99.90
54461;DHT22;69977;49.414;11.010;2024-02-04T05:57:14;7.40;99.90
54461;DHT22;69977;49.414;11.010;2024-02-04T05:59:40;7.50;99.90
54461;DHT22;69977;49.414;11.010;2024-02-04T06:02:05;7.50;99.90
54461;DHT22;69977;49.414;11.010;2024-02-04T06:04:32;7.50;99.90
54461;DHT22;69977;49.414;11.010;2024-02-04T06:06:58;7.50;99.90
54461;DHT22;69977;49.414;11.010;2024-02-04T06:09:24;7.50;99.90
54461;DHT22;69977;49.414;11.010;2024-02-04T06:11:49;7.40;99.90
54461;DHT22;69977;49.414;11.010;2024-02-04T06:14:15;7.40;99.90
54461;DHT22;69977;49.414;11.010;2024-02-04T06:16:41;7.40;99.90
54461;DHT22;69977;49.414;11.010;2024-02-04T06:19:07;7.40;99.90
54461;DHT22;69977;49.414;11.010;2024-02-04T06:21:34;7.30;99.90
54461;DHT22;69977;49.414;11.010;2024-02-04T06:24:00;7.40;99.90
54461;DHT22;69977;49.414;11.010;2024-02-04T06:26:27;7.40;99.90
54461;DHT22;69977;49.414;11.010;2024-02-04T06:28:53;7.40;99.90
54461;DHT22;69977;49.414;11.010;2024-02-04T06:31:19;7.40;99.90
54461;DHT22;69977;49.414;11.010;2024-02-04T06:33:45;7.40;99.90
54461;DHT22;69977;49.414;11.010;2024-02-04T06:36:11;7.50;99.90
54461;DHT22;69977;49.414;11.010;2024-02-04T06:38:37;7.50;99.90
54461;DHT22;69977;49.414;11.010;2024-02-04T06:41:03;7.50;99.90
54461;DHT22;69977;49.414;11.010;2024-02-04T06:43:28;7.50;99.90
54461;DHT22;69977;49.414;11.010;2024-02-04T06:45:54;7.50;99.90
54461;DHT22;69977;49.414;11.010;2024-02-04T06:48:20;7.50;99.90
54461;DHT22;69977;49.414;11.010;2024-02-04T06:50:46;7.50;99.90
54461;DHT22;69977;49.414;11.010;2024-02-04T06:53:14;7.50;99.90
54461;DHT22;69977;49.414;11.010;2024-02-04T06:55:40;7.50;99.90
54461;DHT22;69977;49.414;11.010;2024-02-04T06:58:06;7.60;99.90
54461;DHT22;69977;49.414;11.010;2024-02-04T07:00:31;7.60;99.90
54461;DHT22;69977;49.414;11.010;2024-02-04T07:02:57;7.60;99.90
54461;DHT22;69977;49.414;11.010;2024-02-04T07:05:23;7.60;99.90
54461;DHT22;69977;49.414;11.010;2024-02-04T07:07:50;7.60;99.90
54461;DHT22;69977;49.414;11.010;2024-02-04T07:10:16;7.70;99.90
54461;DHT22;69977;49.414;11.010;2024-02-04T07:12:42;7.70;99.90
54461;DHT22;69977;49.414;11.010;2024-02-04T07:15:08;7.70;99.90
54461;DHT22;69977;49.414;11.010;2024-02-04T07:17:35;7.80;99.90
54461;DHT22;69977;49.414;11.010;2024-02-04T07:20:04;7.80;99.90
54461;DHT22;69977;49.414;11.010;2024-02-04T07:22:30;7.80;99.90
54461;DHT22;69977;49.414;11.010;2024-02-04T07:24:56;7.80;99.90
54461;DHT22;69977;49.414;11.010;2024-02-04T07:27:22;7.80;99.90
54461;DHT22;69977;49.414;11.010;2024-02-04T07:29:48;7.90;99.90
54461;DHT22;69977;49.414;11.010;2024-02-04T07:32:15;7.80;99.90
54461;DHT22;69977;49.414;11.010;2024-02-04T07:34:41;7.80;99.90
54461;DHT22;69977;49.414;11.010;2024-02-04T07:37:07;7.90;99.90
54461;DHT22;69977;49.414;11.010;2024-02-04T07:39:33;7.90;99.90
54461;DHT22;69977;49.414;11.010;2024-02-04T07:41:58;7.90;99.90
54461;DHT22;69977;49.414;11.010;2024-02-04T07:44:28;8.00;99.90
54461;DHT22;69977;49.414;11.010;2024-02-04T07:46:54;8.00;99.90
54461;DHT22;69977;49.414;11.010;2024-02-04T07:49:20;8.00;99.90
54461;DHT22;69977;49.414;11.010;2024-02-04T07:51:46;8.00;99.90
54461;DHT22;69977;49.414;11.010;2024-02-04T07:54:12;8.00;99.90
54461;DHT22;69977;49.414;11.010;2024-02-04T07:56:38;8.00;99.90
54461;DHT22;69977;49.414;11.010;2024-02-04T07:59:03;8.00;99.90
54461;DHT22;69977;49.414;11.010;2024-02-04T08:01:30;8.00;99.90
54461;DHT22;69977;49.414;11.010;2024-02-04T08:03:56;8.10;99.90
54461;DHT22;69977;49.414;11.010;2024-02-04T08:06:22;8.10;99.90
54461;DHT22;69977;49.414;11.010;2024-02-04T08:08:48;8.20;99.90
54461;DHT22;69977;49.414;11.010;2024-02-04T08:11:18;8.20;99.90
54461;DHT22;69977;49.414;11.010;2024-02-04T08:13:44;8.20;99.90
54461;DHT22;69977;49.414;11.010;2024-02-04T08:16:10;8.20;99.90
54461;DHT22;69977;49.414;11.010;2024-02-04T08:18:36;8.20;99.90
54461;DHT22;69977;49.414;11.010;2024-02-04T08:21:02;8.30;99.90
54461;DHT22;69977;49.414;11.010;2024-02-04T08:23:29;8.30;99.90
54461;DHT22;69977;49.414;11.010;2024-02-04T08:25:54;8.30;99.90
54461;DHT22;69977;49.414;11.010;2024-02-04T08:28:22;8.30;99.90
54461;DHT22;69977;49.414;11.010;2024-02-04T08:30:49;8.30;99.90
54461;DHT22;69977;49.414;11.010;2024-02-04T08:33:15;8.30;99.90
54461;DHT22;69977;49.414;11.010;2024-02-04T08:35:41;8.30;99.90
54461;DHT22;69977;49.414;11.010;2024-02-04T08:38:07;8.30;99.90
54461;DHT22;69977;49.414;11.010;2024-02-04T08:40:33;8.30;99.90
54461;DHT22;69977;49.414;11.010;2024-02-04T08:42:58;8.30;99.90
54461;DHT22;69977;49.414;11.010;2024-02-04T08:45:24;8.30;99.90
54461;DHT22;69977;49.414;11.010;2024-02-04T08:47:51;8.30;99.90
54461;DHT22;69977;49.414;11.010;2024-02-04T08:50:17;8.40;99.90
54461;DHT22;69977;49.414;11.010;2024-02-04T08:52:43;8.40;99.90
54461;DHT22;69977;49.414;11.010;2024-02-04T08:55:08;8.40;99.90
54461;DHT22;69977;49.414;11.010;2024-02-04T08:57:34;8.40;99.90
54461;DHT22;69977;49.414;11.010;2024-02-04T09:00:00;8.40;99.90
54461;DHT22;69977;49.414;11.010;2024-02-04T09:02:26;8.40;99.90
54461;DHT22;69977;49.414;11.010;2024-02-04T09:04:52;8.40;99.90
54461;DHT22;69977;49.414;11.010;2024-02-04T09:07:18;8.40;99.90
54461;DHT22;69977;49.414;11.010;2024-02-04T09:09:44;8.40;99.90
54461;DHT22;69977;49.414;11.010;2024-02-04T09:12:10;8.50;99.90
54461;DHT22;69977;49.414;11.010;2024-02-04T09:14:36;8.50;99.90
54461;DHT22;69977;49.414;11.010;2024-02-04T09:17:05;8.50;99.90
54461;DHT22;69977;49.414;11.010;2024-02-04T09:19:32;8.60;99.90
54461;DHT22;69977;49.414;11.010;2024-02-04T09:21:58;8.60;99.90
54461;DHT22;69977;49.414;11.010;2024-02-04T09:24:23;8.60;99.90
54461;DHT22;69977;49.414;11.010;2024-02-04T09:26:49;8.60;99.90
54461;DHT22;69977;49.414;11.010;2024-02-04T09:29:16;8.70;99.90
54461;DHT22;69977;49.414;11.010;2024-02-04T09:31:41;8.70;99.90
54461;DHT22;69977;49.414;11.010;2024-02-04T09:34:07;8.70;99.90
54461;DHT22;69977;49.414;11.010;2024-02-04T09:36:34;8.80;99.90
54461;DHT22;69977;49.414;11.010;2024-02-04T09:38:59;8.80;99.90
54461;DHT22;69977;49.414;11.010;2024-02-04T09:41:25;8.80;99.90
54461;DHT22;69977;49.414;11.010;2024-02-04T09:43:52;8.80;99.90
54461;DHT22;69977;49.414;11.010;2024-02-04T09:46:19;8.90;99.90
54461;DHT22;69977;49.414;11.010;2024-02-04T09:48:49;8.90;99.90
54461;DHT22;69977;49.414;11.010;2024-02-04T09:51:16;9.00;99.90
54461;DHT22;69977;49.414;11.010;2024-02-04T09:53:45;9.00;99.90
54461;DHT22;69977;49.414;11.010;2024-02-04T09:56:12;9.10;99.90
54461;DHT22;69977;49.414;11.010;2024-02-04T09:58:38;9.00;99.90
54461;DHT22;69977;49.414;11.010;2024-02-04T10:01:07;9.10;99.90
54461;DHT22;69977;49.414;11.010;2024-02-04T10:03:35;9.20;99.90
54461;DHT22;69977;49.414;11.010;2024-02-04T10:06:01;9.30;99.90
54461;DHT22;69977;49.414;11.010;2024-02-04T10:08:27;9.30;99.90
54461;DHT22;69977;49.414;11.010;2024-02-04T10:10:53;9.30;99.90
54461;DHT22;69977;49.414;11.010;2024-02-04T10:13:23;9.40;99.90
54461;DHT22;69977;49.414;11.010;2024-02-04T10:15:51;9.40;99.90
54461;DHT22;69977;49.414;11.010;2024-02-04T10:18:17;9.50;99.90
54461;DHT22;69977;49.414;11.010;2024-02-04T10:20:43;9.50;99.90
54461;DHT22;69977;49.414;11.010;2024-02-04T10:23:09;9.60;99.90
54461;DHT22;69977;49.414;11.010;2024-02-04T10:25:35;9.60;99.90
54461;DHT22;69977;49.414;11.010;2024-02-04T10:28:01;9.70;99.90
54461;DHT22;69977;49.414;11.010;2024-02-04T10:30:27;9.60;99.90
54461;DHT22;69977;49.414;11.010;2024-02-04T10:32:54;9.50;99.90
54461;DHT22;69977;49.414;11.010;2024-02-04T10:35:23;9.40;99.90
54461;DHT22;69977;49.414;11.010;2024-02-04T10:37:50;9.40;99.90
54461;DHT22;69977;49.414;11.010;2024-02-04T10:40:16;9.40;99.90
54461;DHT22;69977;49.414;11.010;2024-02-04T10:42:43;9.40;99.90
54461;DHT22;69977;49.414;11.010;2024-02-04T10:45:10;9.40;99.90
54461;DHT22;69977;49.414;11.010;2024-02-04T10:47:39;9.30;99.90
54461;DHT22;69977;49.414;11.010;2024-02-04T10:50:06;9.40;99.90
54461;DHT22;69977;49.414;11.010;2024-02-04T10:52:37;9.40;99.90
54461;DHT22;69977;49.414;11.010;2024-02-04T10:55:08;9.50;99.90
54461;DHT22;69977;49.414;11.010;2024-02-04T10:57:35;9.50;99.90
54461;DHT22;69977;49.414;11.010;2024-02-04T11:00:05;9.60;99.90
54461;DHT22;69977;49.414;11.010;2024-02-04T11:02:38;9.50;99.90
54461;DHT22;69977;49.414;11.010;2024-02-04T11:05:05;9.50;99.90
54461;DHT22;69977;49.414;11.010;2024-02-04T11:07:33;9.50;99.90
54461;DHT22;69977;49.414;11.010;2024-02-04T11:10:00;9.50;99.90
54461;DHT22;69977;49.414;11.010;2024-02-04T11:12:28;9.50;99.90
54461;DHT22;69977;49.414;11.010;2024-02-04T11:14:59;9.50;99.90
54461;DHT22;69977;49.414;11.010;2024-02-04T11:23:20;9.40;99.90
54461;DHT22;69977;49.414;11.010;2024-02-04T11:25:53;9.40;99.90
54461;DHT22;69977;49.414;11.010;2024-02-04T11:28:21;9.40;99.90
54461;DHT22;69977;49.414;11.010;2024-02-04T11:30:48;9.40;99.90
54461;DHT22;69977;49.414;11.010;2024-02-04T11:33:20;9.40;99.90
54461;DHT22;69977;49.414;11.010;2024-02-04T11:35:46;9.50;99.90
54461;DHT22;69977;49.414;11.010;2024-02-04T11:38:17;9.50;99.90
54461;DHT22;69977;49.414;11.010;2024-02-04T11:40:45;9.50;99.90
54461;DHT22;69977;49.414;11.010;2024-02-04T11:43:11;9.50;99.90
54461;DHT22;69977;49.414;11.010;2024-02-04T11:45:39;9.50;99.90
54461;DHT22;69977;49.414;11.010;2024-02-04T11:48:10;9.60;99.90
54461;DHT22;69977;49.414;11.010;2024-02-04T11:50:37;9.70;99.90
54461;DHT22;69977;49.414;11.010;2024-02-04T11:53:11;9.80;99.90
54461;DHT22;69977;49.414;11.010;2024-02-04T11:55:39;9.90;99.90
54461;DHT22;69977;49.414;11.010;2024-02-04T11:58:06;10.10;99.90
54461;DHT22;69977;49.414;11.010;2024-02-04T12:00:33;10.10;99.90
54461;DHT22;69977;49.414;11.010;2024-02-04T12:03:03;10.10;99.90
54461;DHT22;69977;49.414;11.010;2024-02-04T12:05:31;10.10;99.90
54461;DHT22;69977;49.414;11.010;2024-02-04T12:08:01;10.20;99.90
54461;DHT22;69977;49.414;11.010;2024-02-04T12:10:29;10.20;99.90
54461;DHT22;69977;49.414;11.010;2024-02-04T12:12:56;10.10;99.90
54461;DHT22;69977;49.414;11.010;2024-02-04T12:15:23;10.00;99.90
54461;DHT22;69977;49.414;11.010;2024-02-04T12:17:48;10.00;99.90
54461;DHT22;69977;49.414;11.010;2024-02-04T12:20:14;10.00;99.90
54461;DHT22;69977;49.414;11.010;2024-02-04T12:22:40;9.90;99.90
54461;DHT22;69977;49.414;11.010;2024-02-04T12:25:06;9.80;99.90
54461;DHT22;69977;49.414;11.010;2024-02-04T12:27:33;9.80;99.90
54461;DHT22;69977;49.414;11.010;2024-02-04T12:29:59;9.80;99.90
54461;DHT22;69977;49.414;11.010;2024-02-04T12:32:25;9.80;99.90
54461;DHT22;69977;49.414;11.010;2024-02-04T12:34:52;9.90;99.90
54461;DHT22;69977;49.414;11.010;2024-02-04T12:37:20;9.90;99.90
54461;DHT22;69977;49.414;11.010;2024-02-04T12:39:46;9.90;99.90
54461;DHT22;69977;49.414;11.010;2024-02-04T12:42:18;9.90;99.90
54461;DHT22;69977;49.414;11.010;2024-02-04T12:44:47;10.00;99.90
54461;DHT22;69977;49.414;11.010;2024-02-04T12:47:14;10.10;99.90
54461;DHT22;69977;49.414;11.010;2024-02-04T12:49:44;10.10;99.90
54461;DHT22;69977;49.414;11.010;2024-02-04T12:52:09;10.10;99.90
54461;DHT22;69977;49.414;11.010;2024-02-04T12:54:45;10.00;99.90
54461;DHT22;69977;49.414;11.010;2024-02-04T12:57:21;10.00;99.90
54461;DHT22;69977;49.414;11.010;2024-02-04T12:59:49;10.10;99.90
54461;DHT22;69977;49.414;11.010;2024-02-04T13:02:15;10.10;99.90
54461;DHT22;69977;49.414;11.010;2024-02-04T13:04:42;10.10;99.90
54461;DHT22;69977;49.414;11.010;2024-02-04T13:07:12;10.10;99.90
54461;DHT22;69977;49.414;11.010;2024-02-04T13:09:40;10.10;99.90
54461;DHT22;69977;49.414;11.010;2024-02-04T13:12:07;10.00;99.90
54461;DHT22;69977;49.414;11.010;2024-02-04T13:14:37;10.10;99.90
54461;DHT22;69977;49.414;11.010;2024-02-04T13:17:06;10.10;99.90
54461;DHT22;69977;49.414;11.010;2024-02-04T13:19:37;10.10;99.90
54461;DHT22;69977;49.414;11.010;2024-02-04T13:22:04;10.20;99.90
54461;DHT22;69977;49.414;11.010;2024-02-04T13:24:31;10.20;99.90
54461;DHT22;69977;49.414;11.010;2024-02-04T13:26:57;10.20;99.90
54461;DHT22;69977;49.414;11.010;2024-02-04T13:29:24;10.30;99.90
54461;DHT22;69977;49.414;11.010;2024-02-04T13:31:50;10.30;99.90
54461;DHT22;69977;49.414;11.010;2024-02-04T13:34:16;10.30;99.90
54461;DHT22;69977;49.414;11.010;2024-02-04T13:36:43;10.20;99.90
54461;DHT22;69977;49.414;11.010;2024-02-04T13:39:09;10.30;99.90
54461;DHT22;69977;49.414;11.010;2024-02-04T13:41:35;10.30;99.90
54461;DHT22;69977;49.414;11.010;2024-02-04T13:44:01;10.30;99.90
54461;DHT22;69977;49.414;11.010;2024-02-04T13:46:27;10.30;99.90
54461;DHT22;69977;49.414;11.010;2024-02-04T13:48:53;10.30;99.90
54461;DHT22;69977;49.414;11.010;2024-02-04T13:51:19;10.20;99.90
54461;DHT22;69977;49.414;11.010;2024-02-04T13:53:44;10.10;99.90
54461;DHT22;69977;49.414;11.010;2024-02-04T13:56:10;10.20;99.90
54461;DHT22;69977;49.414;11.010;2024-02-04T13:58:36;10.10;99.90
54461;DHT22;69977;49.414;11.010;2024-02-04T14:01:02;10.10;99.90
54461;DHT22;69977;49.414;11.010;2024-02-04T14:03:28;10.00;99.90
54461;DHT22;69977;49.414;11.010;2024-02-04T14:05:54;10.10;99.90
54461;DHT22;69977;49.414;11.010;2024-02-04T14:08:21;10.00;99.90
54461;DHT22;69977;49.414;11.010;2024-02-04T14:10:47;10.00;99.90
54461;DHT22;69977;49.414;11.010;2024-02-04T14:13:13;10.00;99.90
54461;DHT22;69977;49.414;11.010;2024-02-04T14:15:39;10.00;99.90
54461;DHT22;69977;49.414;11.010;2024-02-04T14:18:05;10.00;99.90
54461;DHT22;69977;49.414;11.010;2024-02-04T14:20:31;9.90;99.90
54461;DHT22;69977;49.414;11.010;2024-02-04T14:22:57;9.80;99.90
54461;DHT22;69977;49.414;11.010;2024-02-04T14:25:23;9.80;99.90
54461;DHT22;69977;49.414;11.010;2024-02-04T14:27:50;9.70;99.90
54461;DHT22;69977;49.414;11.010;2024-02-04T14:30:16;9.70;99.90
54461;DHT22;69977;49.414;11.010;2024-02-04T14:32:42;9.70;99.90
54461;DHT22;69977;49.414;11.010;2024-02-04T14:35:08;9.70;99.90
54461;DHT22;69977;49.414;11.010;2024-02-04T14:37:38;9.70;99.90
54461;DHT22;69977;49.414;11.010;2024-02-04T14:40:07;9.70;99.90
54461;DHT22;69977;49.414;11.010;2024-02-04T14:42:33;9.60;99.90
54461;DHT22;69977;49.414;11.010;2024-02-04T14:44:59;9.60;99.90
54461;DHT22;69977;49.414;11.010;2024-02-04T14:47:28;9.50;99.90
54461;DHT22;69977;49.414;11.010;2024-02-04T14:49:55;9.50;99.90
54461;DHT22;69977;49.414;11.010;2024-02-04T14:52:21;9.50;99.90
54461;DHT22;69977;49.414;11.010;2024-02-04T14:54:46;9.50;99.90
54461;DHT22;69977;49.414;11.010;2024-02-04T14:57:12;9.50;99.90
54461;DHT22;69977;49.414;11.010;2024-02-04T14:59:39;9.50;99.90
54461;DHT22;69977;49.414;11.010;2024-02-04T15:02:06;9.60;99.90
54461;DHT22;69977;49.414;11.010;2024-02-04T15:04:32;9.50;99.90
54461;DHT22;69977;49.414;11.010;2024-02-04T15:06:59;9.50;99.90
54461;DHT22;69977;49.414;11.010;2024-02-04T15:09:34;9.50;99.90
54461;DHT22;69977;49.414;11.010;2024-02-04T15:12:01;9.50;99.90
54461;DHT22;69977;49.414;11.010;2024-02-04T15:14:28;9.50;99.90
54461;DHT22;69977;49.414;11.010;2024-02-04T15:16:54;9.40;99.90
54461;DHT22;69977;49.414;11.010;2024-02-04T15:19:23;9.40;99.90
54461;DHT22;69977;49.414;11.010;2024-02-04T15:21:50;9.40;99.90
54461;DHT22;69977;49.414;11.010;2024-02-04T15:24:17;9.40;99.90
54461;DHT22;69977;49.414;11.010;2024-02-04T15:26:45;9.30;99.90
54461;DHT22;69977;49.414;11.010;2024-02-04T15:29:13;9.30;99.90
54461;DHT22;69977;49.414;11.010;2024-02-04T15:31:41;9.30;99.90
54461;DHT22;69977;49.414;11.010;2024-02-04T15:34:07;9.20;99.90